Terminal Aerodrome Forecast
Issued by NWS Louisville, KY

Home | Current Version | Previous Version | Text Only | Print | Product List | Glossary On
Versions: 1 2 3 4 5 6 7 8 9 10 11 12 13 14 15 16 17 18 19 20 21 22
000
FTUS43 KLMK 171741
TAFSDF
TAF
KSDF 171741Z 1718/1824 15008KT P6SM BKN250
     FM180300 18013KT P6SM OVC060 WS020/19045KT
     FM180500 19013G23KT P6SM VCSH OVC045 WS020/20055KT
     FM181000 19016G26KT P6SM -SHRA OVC025
     FM181600 20020G29KT P6SM -SHRA OVC015 PROB30 1816/1818 4SM
      -TSRA BKN010CB=

USA.gov is the U.S. government's official web portal to all federal, state and local government web resources and services.